Time;durP1;ratioP1;P1;durP2;ratioP2;P2;SDS_P1;SDS_P2;PMS_P1;PMS_P2;Temp;Humidity;BMP_temperature;BMP_pressure;BME280_temperature;BME280_humidity;BME280_pressure;Samples;Min_cycle;Max_cycle;Signal;HPM_P1;HPM_P2
2023/05/02 00:03:58;;;;;;;11.25;4.05;;;;;;;-147.53;100.00;57128.34;10139813;29;20458;-77
2023/05/02 00:08:59;;;;;;;8.73;3.10;;;;;;;-147.53;100.00;57128.34;10121688;29;20623;-77
2023/05/02 00:14:01;;;;;;;7.95;3.17;;;;;;;-147.53;100.00;57128.34;10109892;29;20521;-77
2023/05/02 00:19:03;;;;;;;11.18;3.35;;;;;;;-147.53;100.00;57128.34;10134975;29;20144;-77
2023/05/02 00:24:04;;;;;;;9.63;3.90;;;;;;;-147.53;100.00;57128.34;10116404;29;20253;-76
2023/05/02 00:29:07;;;;;;;9.43;3.35;;;;;;;-147.53;100.00;57128.34;10139484;29;20059;-77
2023/05/02 00:34:08;;;;;;;8.68;3.35;;;;;;;-147.53;100.00;57128.34;10129436;29;20051;-77
2023/05/02 00:39:11;;;;;;;11.63;3.90;;;;;;;-147.53;100.00;57128.34;10115197;29;20329;-77
2023/05/02 00:44:12;;;;;;;8.25;3.65;;;;;;;-147.53;100.00;57128.34;10156692;29;20138;-77
2023/05/02 00:49:14;;;;;;;8.68;3.80;;;;;;;-147.53;100.00;57128.34;10123898;29;20048;-77
2023/05/02 00:54:16;;;;;;;9.45;3.40;;;;;;;-147.53;100.00;57128.34;10151828;29;20572;-77
2023/05/02 00:59:18;;;;;;;11.27;3.42;;;;;;;-147.53;100.00;57128.34;10134109;29;20259;-76
2023/05/02 01:04:41;;;;;;;12.48;4.15;;;;;;;-147.53;100.00;57128.34;10134346;29;20048;-76
2023/05/02 01:09:58;;;;;;;7.32;3.20;;;;;;;-147.53;100.00;57128.34;10123956;29;20488;-78
2023/05/02 01:15:06;;;;;;;8.32;3.50;;;;;;;-147.53;100.00;57128.34;10130913;29;20044;-77
2023/05/02 01:20:12;;;;;;;8.32;2.83;;;;;;;-147.53;100.00;57128.34;10131887;29;20426;-77
2023/05/02 01:25:32;;;;;;;8.32;3.38;;;;;;;-147.53;100.00;57128.34;10151371;29;20053;-77
2023/05/02 01:30:36;;;;;;;9.30;3.20;;;;;;;-147.53;100.00;57128.34;10122464;29;20052;-77
2023/05/02 01:35:40;;;;;;;5.72;2.70;;;;;;;-147.53;100.00;57128.34;10124420;29;20056;-77
2023/05/02 01:40:44;;;;;;;6.03;2.10;;;;;;;-147.53;100.00;57128.34;10141610;29;20064;-76
2023/05/02 01:45:48;;;;;;;3.55;1.58;;;;;;;-147.53;100.00;57128.34;10130845;29;20064;-78
2023/05/02 01:50:52;;;;;;;5.15;1.63;;;;;;;-147.53;100.00;57128.34;10120841;29;20540;-77
2023/05/02 01:55:55;;;;;;;1.73;0.70;;;;;;;-147.53;100.00;57128.34;10159699;29;20084;-77
2023/05/02 02:01:00;;;;;;;3.75;0.60;;;;;;;-147.53;100.00;57128.34;10158899;29;20052;-80
2023/05/02 02:06:04;;;;;;;0.75;0.57;;;;;;;-147.53;100.00;57128.34;10153516;29;20132;-79
2023/05/02 02:11:10;;;;;;;1.15;0.52;;;;;;;-147.53;100.00;57128.34;10137319;29;20154;-79
2023/05/02 02:16:20;;;;;;;0.43;0.43;;;;;;;-147.53;100.00;57128.34;10143266;29;20127;-80
2023/05/02 02:21:25;;;;;;;9.20;0.97;;;;;;;-147.53;100.00;57128.34;10140966;29;20052;-79
2023/05/02 02:26:27;;;;;;;2.30;1.02;;;;;;;-147.53;100.00;57128.34;10129011;29;20088;-79
2023/05/02 02:31:34;;;;;;;1.75;0.80;;;;;;;-147.53;100.00;57128.34;10145598;29;20119;-79
2023/05/02 02:37:03;;;;;;;2.22;1.10;;;;;;;-147.53;100.00;57128.34;10127637;29;20525;-77
2023/05/02 02:42:43;;;;;;;1.25;0.82;;;;;;;-147.53;100.00;57128.34;10134889;29;20414;-78
2023/05/02 02:47:57;;;;;;;0.95;0.50;;;;;;;-147.53;100.00;57128.34;10135923;29;20083;-78
2023/05/02 02:53:07;;;;;;;2.35;0.98;;;;;;;-147.53;100.00;57128.34;10148608;29;20088;-78
2023/05/02 02:58:19;;;;;;;1.58;0.50;;;;;;;-147.53;100.00;57128.34;10134707;29;20188;-78
2023/05/02 03:03:27;;;;;;;0.30;0.30;;;;;;;-147.53;100.00;57128.34;10156741;29;20478;-78
2023/05/02 03:08:39;;;;;;;1.67;0.90;;;;;;;-147.53;100.00;57128.34;10107174;29;20144;-78
2023/05/02 03:13:42;;;;;;;0.80;0.63;;;;;;;-147.53;100.00;57128.34;10134454;29;20048;-77
2023/05/02 03:18:44;;;;;;;7.95;0.98;;;;;;;-147.53;100.00;57128.34;10127916;29;20111;-77
2023/05/02 03:23:46;;;;;;;4.97;1.17;;;;;;;-147.53;100.00;57128.34;10117738;29;20052;-78
2023/05/02 03:28:50;;;;;;;3.03;1.00;;;;;;;-147.53;100.00;57128.34;10103068;29;20440;-77
2023/05/02 03:33:57;;;;;;;4.88;1.42;;;;;;;-147.53;100.00;57128.34;10114133;29;20056;-78
2023/05/02 03:38:59;;;;;;;6.72;1.58;;;;;;;-147.53;100.00;57128.34;10119493;29;20061;-77
2023/05/02 03:44:03;;;;;;;1.85;1.05;;;;;;;-147.53;100.00;57128.34;10137152;29;20057;-78
2023/05/02 03:49:05;;;;;;;6.18;0.70;;;;;;;-147.53;100.00;57128.34;10122089;29;20116;-77
2023/05/02 03:54:08;;;;;;;4.40;0.82;;;;;;;-147.53;100.00;57128.34;10115583;29;20151;-77
2023/05/02 03:59:13;;;;;;;0.52;0.52;;;;;;;-147.53;100.00;57128.34;10132034;29;20052;-77
2023/05/02 04:04:15;;;;;;;2.85;1.52;;;;;;;-147.53;100.00;57128.34;10122474;29;20627;-77
2023/05/02 04:09:24;;;;;;;1.92;0.70;;;;;;;-147.53;100.00;57128.34;10127261;29;20072;-77
2023/05/02 04:14:46;;;;;;;2.13;1.25;;;;;;;-147.53;100.00;57128.34;10124951;29;20176;-77
2023/05/02 04:19:48;;;;;;;0.95;0.52;;;;;;;-147.53;100.00;57128.34;10122272;29;20092;-76
2023/05/02 04:24:51;;;;;;;1.73;1.08;;;;;;;-147.53;100.00;57128.34;10130273;29;20112;-77
2023/05/02 04:29:53;;;;;;;2.20;1.10;;;;;;;-147.53;100.00;57128.34;10138702;29;20470;-78
2023/05/02 04:34:55;;;;;;;6.32;1.23;;;;;;;-147.53;100.00;57128.34;10107306;29;20505;-78
2023/05/02 04:39:58;;;;;;;1.08;0.57;;;;;;;-147.53;100.00;57128.34;10136437;29;20059;-78
2023/05/02 04:45:03;;;;;;;1.85;0.98;;;;;;;-147.53;100.00;57128.34;10128236;29;20052;-76
2023/05/02 04:50:06;;;;;;;3.13;0.70;;;;;;;-147.53;100.00;57128.34;10114119;29;20071;-76
2023/05/02 04:55:08;;;;;;;8.48;0.73;;;;;;;-147.53;100.00;57128.34;10112067;29;20092;-77
2023/05/02 05:00:11;;;;;;;3.58;0.90;;;;;;;-147.53;100.00;57128.34;10129875;29;20056;-77
2023/05/02 05:05:13;;;;;;;3.90;1.10;;;;;;;-147.53;100.00;57128.34;10136063;29;20056;-77
2023/05/02 05:10:15;;;;;;;5.90;1.20;;;;;;;-147.53;100.00;57128.34;10129193;29;22584;-77
2023/05/02 05:15:22;;;;;;;7.65;1.73;;;;;;;-147.53;100.00;57128.34;10121373;29;20111;-76
2023/05/02 05:20:29;;;;;;;5.03;1.10;;;;;;;-147.53;100.00;57128.34;10121878;29;20525;-77
2023/05/02 05:25:33;;;;;;;1.88;0.80;;;;;;;-147.53;100.00;57128.34;10116772;29;20049;-77
2023/05/02 05:30:35;;;;;;;1.20;0.55;;;;;;;-147.53;100.00;57128.34;10122577;29;20465;-77
2023/05/02 05:35:40;;;;;;;1.85;0.80;;;;;;;-147.53;100.00;57128.34;10116981;29;20059;-76
2023/05/02 05:40:43;;;;;;;6.80;0.75;;;;;;;-147.53;100.00;57128.34;10123726;29;20059;-77
2023/05/02 05:45:45;;;;;;;3.65;1.23;;;;;;;-147.53;100.00;57128.34;10117774;29;20057;-77
2023/05/02 05:50:48;;;;;;;1.85;0.77;;;;;;;-147.53;100.00;57128.34;10116591;29;20577;-77
2023/05/02 05:55:50;;;;;;;3.20;0.73;;;;;;;-147.53;100.00;57128.34;10140906;29;20072;-77
2023/05/02 06:00:53;;;;;;;3.88;1.00;;;;;;;-147.53;100.00;57128.34;10107632;29;20421;-77
2023/05/02 06:05:55;;;;;;;1.92;0.70;;;;;;;-147.53;100.00;57128.34;10130478;29;20072;-77
2023/05/02 06:10:57;;;;;;;0.82;0.65;;;;;;;-147.53;100.00;57128.34;10129692;29;20143;-77
2023/05/02 06:16:01;;;;;;;3.63;0.73;;;;;;;-147.53;100.00;57128.34;10115145;29;20087;-77
2023/05/02 06:21:04;;;;;;;1.60;0.90;;;;;;;-147.53;100.00;57128.34;10121736;29;20080;-77
2023/05/02 06:26:06;;;;;;;5.10;1.83;;;;;;;-147.53;100.00;57128.34;10124177;29;20109;-77
2023/05/02 06:31:08;;;;;;;2.55;0.68;;;;;;;-147.53;100.00;57128.34;10138059;29;20049;-77
2023/05/02 06:36:09;;;;;;;1.00;0.70;;;;;;;-147.53;100.00;57128.34;10153448;29;20056;-77
2023/05/02 06:41:14;;;;;;;4.43;1.40;;;;;;;-147.53;100.00;57128.34;10137788;29;20392;-76
2023/05/02 06:46:19;;;;;;;1.77;0.85;;;;;;;-147.53;100.00;57128.34;10135809;29;20091;-77
2023/05/02 06:51:21;;;;;;;5.30;1.27;;;;;;;-147.53;100.00;57128.34;10112878;29;20104;-77
2023/05/02 06:56:24;;;;;;;1.70;0.70;;;;;;;-147.53;100.00;57128.34;10135037;29;20056;-76
2023/05/02 07:01:26;;;;;;;4.00;0.95;;;;;;;-147.53;100.00;57128.34;10103037;29;20052;-76
2023/05/02 07:06:27;;;;;;;3.28;0.63;;;;;;;-147.53;100.00;57128.34;10143171;29;20092;-77
2023/05/02 07:11:29;;;;;;;3.20;1.10;;;;;;;-147.53;100.00;57128.34;10155731;29;20040;-76
2023/05/02 07:16:31;;;;;;;0.77;0.57;;;;;;;-147.53;100.00;57128.34;10130598;29;20060;-76
2023/05/02 07:21:33;;;;;;;1.90;0.63;;;;;;;-147.53;100.00;57128.34;10151377;29;20054;-76
2023/05/02 07:26:35;;;;;;;1.33;0.80;;;;;;;-147.53;100.00;57128.34;10134152;29;20062;-76
2023/05/02 07:31:37;;;;;;;2.75;1.15;;;;;;;-147.53;100.00;57128.34;10130101;29;20044;-75
2023/05/02 07:36:38;;;;;;;2.50;0.82;;;;;;;-147.53;100.00;57128.34;10147839;29;20052;-76
2023/05/02 07:41:40;;;;;;;1.45;1.05;;;;;;;-147.53;100.00;57128.34;10137013;29;20462;-74
2023/05/02 07:46:41;;;;;;;2.15;1.02;;;;;;;-147.53;100.00;57128.34;10136354;29;20048;-75
2023/05/02 07:51:44;;;;;;;3.38;1.15;;;;;;;-147.53;100.00;57128.34;10146802;29;20048;-72
2023/05/02 07:56:46;;;;;;;4.05;1.17;;;;;;;-147.53;100.00;57128.34;10150940;29;20251;-70
2023/05/02 08:01:47;;;;;;;7.07;0.90;;;;;;;-147.53;100.00;57128.34;10146508;29;20107;-70
2023/05/02 08:06:49;;;;;;;3.90;1.20;;;;;;;-147.53;100.00;57128.34;10140869;29;20453;-75
2023/05/02 08:11:51;;;;;;;3.70;1.23;;;;;;;-147.53;100.00;57128.34;10125265;29;20049;-76
2023/05/02 08:16:53;;;;;;;2.72;0.93;;;;;;;-147.53;100.00;57128.34;10122833;29;20066;-80
2023/05/02 08:21:55;;;;;;;6.05;1.10;;;;;;;-147.53;100.00;57128.34;10153253;29;20055;-77
2023/05/02 08:26:56;;;;;;;2.72;0.88;;;;;;;-147.53;100.00;57128.34;10149398;29;20069;-76
2023/05/02 08:31:58;;;;;;;5.00;0.88;;;;;;;-147.53;100.00;57128.34;10140640;29;20070;-79
2023/05/02 08:37:00;;;;;;;2.85;1.08;;;;;;;-147.53;100.00;57128.34;10111860;29;20056;-79
2023/05/02 08:42:06;;;;;;;3.55;0.80;;;;;;;-147.53;100.00;57128.34;10159990;29;20127;-79
2023/05/02 08:47:12;;;;;;;2.35;0.73;;;;;;;-147.53;100.00;57128.34;10139074;29;20060;-78
2023/05/02 08:52:15;;;;;;;1.90;0.93;;;;;;;-147.53;100.00;57128.34;10136182;29;20045;-74
2023/05/02 08:57:17;;;;;;;5.78;1.13;;;;;;;-147.53;100.00;57128.34;10147014;29;20063;-76
2023/05/02 09:02:27;;;;;;;2.05;0.93;;;;;;;-147.53;100.00;57128.34;10151040;29;20060;-77
2023/05/02 09:07:29;;;;;;;1.40;0.88;;;;;;;-147.53;100.00;57128.34;10138353;29;21820;-77
2023/05/02 09:12:30;;;;;;;0.47;0.47;;;;;;;-147.53;100.00;57128.34;10140030;29;20564;-76
2023/05/02 09:17:58;;;;;;;1.38;0.60;;;;;;;-147.53;100.00;57128.34;10140503;29;20075;-75
2023/05/02 09:23:00;;;;;;;2.92;0.88;;;;;;;-147.53;100.00;57128.34;10138908;29;20528;-74
2023/05/02 09:28:01;;;;;;;0.65;0.50;;;;;;;-147.53;100.00;57128.34;10137373;29;20387;-80
2023/05/02 09:33:04;;;;;;;2.08;0.50;;;;;;;-147.53;100.00;57128.34;10137768;29;20084;-83
2023/05/02 09:38:19;;;;;;;0.38;0.32;;;;;;;-147.53;100.00;57128.34;10163445;29;20116;-82
2023/05/02 09:43:21;;;;;;;4.22;0.88;;;;;;;-147.53;100.00;57128.34;10161249;29;20045;-84
2023/05/02 09:48:22;;;;;;;5.05;0.85;;;;;;;-147.53;100.00;57128.34;10166079;29;20056;-84
2023/05/02 09:53:26;;;;;;;0.85;0.30;;;;;;;-147.53;100.00;57128.34;10139785;29;20052;-87
2023/05/02 09:58:29;;;;;;;0.70;0.22;;;;;;;-147.53;100.00;57128.34;10165658;29;20080;-82
2023/05/02 10:03:39;;;;;;;1.10;0.43;;;;;;;-147.53;100.00;57128.34;10138738;29;20060;-81
2023/05/02 10:08:49;;;;;;;1.73;0.70;;;;;;;-147.53;100.00;57128.34;10157524;29;20048;-84
2023/05/02 10:14:09;;;;;;;0.60;0.50;;;;;;;-147.53;100.00;57128.34;10139987;29;20048;-81
2023/05/02 10:19:22;;;;;;;0.75;0.35;;;;;;;-147.53;100.00;57128.34;10109537;29;20052;-83
2023/05/02 10:24:25;;;;;;;1.90;0.43;;;;;;;-147.53;100.00;57128.34;10126040;29;20053;-81
2023/05/02 10:29:28;;;;;;;1.08;0.57;;;;;;;-147.53;100.00;57128.34;10135532;29;20084;-80
2023/05/02 10:34:31;;;;;;;0.35;0.35;;;;;;;-147.53;100.00;57128.34;10129331;29;20671;-80
2023/05/02 10:39:33;;;;;;;2.20;0.70;;;;;;;-147.53;100.00;57128.34;10128425;29;20152;-81
2023/05/02 10:44:36;;;;;;;1.02;0.85;;;;;;;-147.53;100.00;57128.34;10140392;29;20084;-78
2023/05/02 10:49:53;;;;;;;20.58;14.95;;;;;;;-147.53;100.00;57128.34;10148997;29;20126;-80
2023/05/02 10:55:16;;;;;;;3.95;0.88;;;;;;;-147.53;100.00;57128.34;10132013;29;20048;-80
2023/05/02 11:00:22;;;;;;;1.42;0.80;;;;;;;-147.53;100.00;57128.34;10119529;29;20144;-79
2023/05/02 11:05:24;;;;;;;3.45;2.03;;;;;;;-147.53;100.00;57128.34;10122559;29;20060;-78
2023/05/02 11:10:26;;;;;;;15.85;6.70;;;;;;;-147.53;100.00;57128.34;10120606;29;20052;-79
2023/05/02 11:15:28;;;;;;;25.20;10.30;;;;;;;-147.53;100.00;57128.34;10144688;29;20090;-72
2023/05/02 11:20:30;;;;;;;9.80;4.25;;;;;;;-147.53;100.00;57128.34;10115795;29;20719;-73
2023/05/02 11:25:34;;;;;;;22.38;8.07;;;;;;;-147.53;100.00;57128.34;10136997;29;20536;-72
2023/05/02 11:30:43;;;;;;;32.67;13.82;;;;;;;-147.53;100.00;57128.34;10109010;29;20052;-72
2023/05/02 11:35:46;;;;;;;18.07;4.90;;;;;;;-147.53;100.00;57128.34;10113584;29;20069;-72
2023/05/02 11:40:53;;;;;;;3.88;1.73;;;;;;;-147.53;100.00;57128.34;10106097;29;20083;-74
2023/05/02 11:45:57;;;;;;;2.50;0.88;;;;;;;-147.53;100.00;57128.34;10121889;29;20345;-73
2023/05/02 11:51:03;;;;;;;2.45;0.85;;;;;;;-147.53;100.00;57128.34;10150134;29;20063;-73
2023/05/02 11:56:06;;;;;;;1.05;0.43;;;;;;;-147.53;100.00;57128.34;10132855;29;20128;-72
2023/05/02 12:01:12;;;;;;;0.43;0.40;;;;;;;-147.53;100.00;57128.34;10101020;29;20067;-73
2023/05/02 12:06:17;;;;;;;2.17;0.90;;;;;;;-147.53;100.00;57128.34;10140316;29;20091;-73
2023/05/02 12:11:20;;;;;;;1.08;0.60;;;;;;;-147.53;100.00;57128.34;10125040;29;20057;-74
2023/05/02 12:16:22;;;;;;;1.02;0.50;;;;;;;-147.53;100.00;57128.34;10141480;29;20254;-74
2023/05/02 12:21:25;;;;;;;0.75;0.57;;;;;;;-147.53;100.00;57128.34;10149451;29;20053;-73
2023/05/02 12:26:32;;;;;;;1.98;0.68;;;;;;;-147.53;100.00;57128.34;10142608;29;20067;-73
2023/05/02 12:31:34;;;;;;;0.30;0.30;;;;;;;-147.53;100.00;57128.34;10132745;29;20056;-73
2023/05/02 12:36:43;;;;;;;0.40;0.30;;;;;;;-147.53;100.00;57128.34;10157802;29;20056;-72
2023/05/02 12:41:44;;;;;;;3.83;1.10;;;;;;;-147.53;100.00;57128.34;10149895;29;20055;-72
2023/05/02 12:47:01;;;;;;;0.20;0.20;;;;;;;-147.53;100.00;57128.34;10124570;29;20052;-72
2023/05/02 12:52:03;;;;;;;3.85;0.73;;;;;;;-147.53;100.00;57128.34;10125751;29;20513;-72
2023/05/02 12:57:05;;;;;;;0.93;0.70;;;;;;;-147.53;100.00;57128.34;10149540;29;20103;-72
2023/05/02 13:02:06;;;;;;;0.43;0.40;;;;;;;-147.53;100.00;57128.34;10156482;29;20416;-72
2023/05/02 13:07:08;;;;;;;1.52;0.40;;;;;;;-147.53;100.00;57128.34;10130655;29;20066;-72
2023/05/02 13:12:09;;;;;;;2.20;0.52;;;;;;;-147.53;100.00;57128.34;10142009;29;20628;-73
2023/05/02 13:17:11;;;;;;;0.85;0.52;;;;;;;-147.53;100.00;57128.34;10160969;29;20572;-72
2023/05/02 13:22:13;;;;;;;0.65;0.30;;;;;;;-147.53;100.00;57128.34;10155473;29;20048;-72
2023/05/02 13:27:17;;;;;;;1.85;0.52;;;;;;;-147.53;100.00;57128.34;10155209;29;20051;-72
2023/05/02 13:32:18;;;;;;;0.38;0.38;;;;;;;-147.53;100.00;57128.34;10154538;29;20062;-72
2023/05/02 13:37:20;;;;;;;1.45;0.57;;;;;;;-147.53;100.00;57128.34;10146839;29;20505;-73
2023/05/02 13:42:22;;;;;;;0.40;0.38;;;;;;;-147.53;100.00;57128.34;10147353;29;20056;-72
2023/05/02 13:47:23;;;;;;;2.35;0.50;;;;;;;-147.53;100.00;57128.34;10146622;29;20062;-72
2023/05/02 13:52:25;;;;;;;0.82;0.45;;;;;;;-147.53;100.00;57128.34;10146640;29;20056;-73
2023/05/02 13:57:26;;;;;;;0.77;0.30;;;;;;;-147.53;100.00;57128.34;10144424;29;20689;-73
2023/05/02 14:02:28;;;;;;;0.90;0.40;;;;;;;-147.53;100.00;57128.34;10146155;29;20095;-72
2023/05/02 14:07:30;;;;;;;1.75;0.40;;;;;;;-147.53;100.00;57128.34;10138582;29;20406;-72
2023/05/02 14:12:32;;;;;;;0.95;0.45;;;;;;;-147.53;100.00;57128.34;10129894;29;20064;-72
2023/05/02 14:17:33;;;;;;;0.80;0.50;;;;;;;-147.53;100.00;57128.34;10138040;29;20053;-72
2023/05/02 14:22:35;;;;;;;0.45;0.40;;;;;;;-147.53;100.00;57128.34;10120954;29;20085;-72
2023/05/02 14:27:36;;;;;;;2.83;0.40;;;;;;;-147.53;100.00;57128.34;10136488;29;20056;-72
2023/05/02 14:32:38;;;;;;;0.60;0.30;;;;;;;-147.53;100.00;57128.34;10160459;29;20342;-72
2023/05/02 14:37:43;;;;;;;1.85;0.70;;;;;;;-147.53;100.00;57128.34;10152778;29;20056;-73
2023/05/02 14:42:45;;;;;;;0.30;0.30;;;;;;;-147.53;100.00;57128.34;10136080;29;20056;-72
2023/05/02 14:47:46;;;;;;;1.02;0.40;;;;;;;-147.53;100.00;57128.34;10111459;29;20052;-72
2023/05/02 14:52:49;;;;;;;0.47;0.30;;;;;;;-147.53;100.00;57128.34;10151700;29;20549;-72
2023/05/02 14:57:51;;;;;;;0.80;0.43;;;;;;;-147.53;100.00;57128.34;10148031;29;20048;-71
2023/05/02 15:02:52;;;;;;;2.67;0.50;;;;;;;-147.53;100.00;57128.34;10146322;29;20055;-71
2023/05/02 15:07:54;;;;;;;2.22;0.47;;;;;;;-147.53;100.00;57128.34;10139570;29;20045;-72
2023/05/02 15:12:56;;;;;;;2.83;0.57;;;;;;;-147.53;100.00;57128.34;10146691;29;20040;-71
2023/05/02 15:17:57;;;;;;;0.90;0.40;;;;;;;-147.53;100.00;57128.34;10150482;29;20048;-72
2023/05/02 15:23:02;;;;;;;0.50;0.30;;;;;;;-147.53;100.00;57128.34;10142396;29;20536;-72
2023/05/02 15:28:04;;;;;;;0.60;0.50;;;;;;;-147.53;100.00;57128.34;10121327;29;20513;-72
2023/05/02 15:33:05;;;;;;;0.88;0.50;;;;;;;-147.53;100.00;57128.34;10134639;29;20677;-71
2023/05/02 15:38:07;;;;;;;0.88;0.50;;;;;;;-147.53;100.00;57128.34;10116005;29;20469;-72
2023/05/02 15:43:09;;;;;;;1.05;0.45;;;;;;;-147.53;100.00;57128.34;10128270;29;20165;-71
2023/05/02 15:48:11;;;;;;;0.75;0.40;;;;;;;-147.53;100.00;57128.34;10120136;29;20615;-72
2023/05/02 15:53:14;;;;;;;1.20;0.40;;;;;;;-147.53;100.00;57128.34;10141914;29;20041;-73
2023/05/02 15:58:16;;;;;;;2.00;0.63;;;;;;;-147.53;100.00;57128.34;10131297;29;20535;-72
2023/05/02 16:03:18;;;;;;;0.55;0.30;;;;;;;-147.53;100.00;57128.34;10141859;29;20048;-73
2023/05/02 16:08:20;;;;;;;0.85;0.50;;;;;;;-147.53;100.00;57128.34;10142726;29;20402;-73
2023/05/02 16:13:21;;;;;;;1.55;0.77;;;;;;;-147.53;100.00;57128.34;10123158;29;20554;-72
2023/05/02 16:18:26;;;;;;;0.30;0.30;;;;;;;-147.53;100.00;57128.34;10142589;29;20048;-73
2023/05/02 16:23:29;;;;;;;0.80;0.60;;;;;;;-147.53;100.00;57128.34;10115289;29;20055;-73
2023/05/02 16:28:30;;;;;;;1.17;0.40;;;;;;;-147.53;100.00;57128.34;10123922;29;20417;-72
2023/05/02 16:33:32;;;;;;;1.25;0.40;;;;;;;-147.53;100.00;57128.34;10097195;29;20052;-71
2023/05/02 16:38:35;;;;;;;0.30;0.30;;;;;;;-147.53;100.00;57128.34;10121241;29;20645;-73
2023/05/02 16:43:37;;;;;;;0.73;0.50;;;;;;;-147.53;100.00;57128.34;10142949;29;20059;-72
2023/05/02 16:48:39;;;;;;;0.88;0.40;;;;;;;-147.53;100.00;57128.34;10162578;29;20104;-73
2023/05/02 16:53:42;;;;;;;0.30;0.30;;;;;;;-147.53;100.00;57128.34;10131580;29;20056;-74
2023/05/02 16:58:43;;;;;;;0.90;0.60;;;;;;;-147.53;100.00;57128.34;10127369;29;20148;-75
2023/05/02 17:03:45;;;;;;;1.40;0.60;;;;;;;-147.53;100.00;57128.34;10143772;29;20521;-75
2023/05/02 17:08:47;;;;;;;1.10;0.40;;;;;;;-147.53;100.00;57128.34;10147273;29;20159;-74
2023/05/02 17:13:49;;;;;;;0.35;0.35;;;;;;;-147.53;100.00;57128.34;10139888;29;20451;-74
2023/05/02 17:18:52;;;;;;;0.85;0.43;;;;;;;-147.53;100.00;57128.34;10147842;29;20051;-75
2023/05/02 17:23:54;;;;;;;1.20;0.40;;;;;;;-147.53;100.00;57128.34;10137957;29;20076;-74
2023/05/02 17:28:56;;;;;;;0.60;0.52;;;;;;;-147.53;100.00;57128.34;10154975;29;20581;-75
2023/05/02 17:33:57;;;;;;;0.77;0.60;;;;;;;-147.53;100.00;57128.34;10152401;29;20068;-74
2023/05/02 17:38:59;;;;;;;0.25;0.25;;;;;;;-147.53;100.00;57128.34;10123165;29;20048;-75
2023/05/02 17:44:01;;;;;;;0.30;0.30;;;;;;;-147.53;100.00;57128.34;10114286;29;20136;-75
2023/05/02 17:49:02;;;;;;;0.52;0.52;;;;;;;-147.53;100.00;57128.34;10126955;29;20052;-76
2023/05/02 17:54:04;;;;;;;5.25;1.25;;;;;;;-147.53;100.00;57128.34;10121713;29;20047;-75
2023/05/02 17:59:05;;;;;;;3.72;0.50;;;;;;;-147.53;100.00;57128.34;10119824;29;20104;-75
2023/05/02 18:04:11;;;;;;;3.55;0.45;;;;;;;-147.53;100.00;57128.34;10124233;29;20044;-75
2023/05/02 18:09:12;;;;;;;2.00;0.50;;;;;;;-147.53;100.00;57128.34;10146098;29;20048;-75
2023/05/02 18:14:14;;;;;;;1.55;0.35;;;;;;;-147.53;100.00;57128.34;10141144;29;20044;-75
2023/05/02 18:19:16;;;;;;;0.40;0.38;;;;;;;-147.53;100.00;57128.34;10127922;29;20371;-75
2023/05/02 18:24:18;;;;;;;0.40;0.35;;;;;;;-147.53;100.00;57128.34;10119441;29;20753;-75
2023/05/02 18:29:19;;;;;;;4.10;0.22;;;;;;;-147.53;100.00;57128.34;10129028;29;20052;-75
2023/05/02 18:34:21;;;;;;;0.38;0.30;;;;;;;-147.53;100.00;57128.34;10126877;29;20047;-75
2023/05/02 18:39:23;;;;;;;0.77;0.52;;;;;;;-147.53;100.00;57128.34;10128613;29;20510;-74
2023/05/02 18:44:24;;;;;;;0.63;0.57;;;;;;;-147.53;100.00;57128.34;10125661;29;20052;-75
2023/05/02 18:49:26;;;;;;;0.45;0.45;;;;;;;-147.53;100.00;57128.34;10117867;29;20524;-74
2023/05/02 18:54:29;;;;;;;3.13;0.60;;;;;;;-147.53;100.00;57128.34;10097442;29;20048;-75
2023/05/02 18:59:30;;;;;;;0.20;0.20;;;;;;;-147.53;100.00;57128.34;10118177;29;20067;-75
2023/05/02 19:04:32;;;;;;;0.30;0.30;;;;;;;-147.53;100.00;57128.34;10122059;29;20052;-75
2023/05/02 19:09:33;;;;;;;0.77;0.40;;;;;;;-147.53;100.00;57128.34;10100715;29;20082;-75
2023/05/02 19:14:38;;;;;;;1.30;0.40;;;;;;;-147.53;100.00;57128.34;10109845;29;20052;-75
2023/05/02 19:19:46;;;;;;;0.20;0.20;;;;;;;0.00;0.00;74347.41;10596514;27;20127;-74
2023/05/02 19:24:49;;;;;;;0.30;0.30;;;;;;;0.01;0.00;59042.03;10581166;28;20134;-74
2023/05/02 19:29:54;;;;;;;0.35;0.35;;;;;;;0.01;0.00;59042.03;10583858;28;20035;-74
2023/05/02 19:34:55;;;;;;;0.20;0.20;;;;;;;0.01;0.00;59042.03;10582200;27;20059;-74
2023/05/02 19:39:58;;;;;;;2.20;0.70;;;;;;;0.01;0.00;59042.03;10588777;27;20104;-74
2023/05/02 19:44:59;;;;;;;1.52;0.43;;;;;;;0.01;0.00;59042.03;10566103;28;20039;-74
2023/05/02 19:50:02;;;;;;;0.65;0.38;;;;;;;0.01;0.00;59042.03;10582274;27;20131;-74
2023/05/02 19:55:04;;;;;;;0.40;0.30;;;;;;;0.01;0.00;59042.03;10563393;28;20522;-74
2023/05/02 20:00:06;;;;;;;0.57;0.45;;;;;;;0.01;0.00;59042.03;10575682;28;20511;-74
2023/05/02 20:05:12;;;;;;;3.92;0.60;;;;;;;0.01;0.00;59042.03;10569149;28;20074;-74
2023/05/02 20:10:14;;;;;;;0.30;0.30;;;;;;;0.01;0.00;59042.03;10550668;27;20058;-75
2023/05/02 20:15:16;;;;;;;0.40;0.30;;;;;;;0.01;0.00;59042.03;10572536;27;20052;-75
2023/05/02 20:20:17;;;;;;;2.67;0.60;;;;;;;0.01;0.00;59042.03;10589827;27;20051;-74
2023/05/02 20:25:21;;;;;;;1.35;0.57;;;;;;;0.01;0.00;59042.03;10583938;28;20040;-74
2023/05/02 20:30:22;;;;;;;0.20;0.20;;;;;;;0.01;0.00;59042.03;10555096;28;20495;-74
2023/05/02 20:35:26;;;;;;;2.90;0.88;;;;;;;0.01;0.00;59042.03;10548560;28;20051;-74
2023/05/02 20:40:29;;;;;;;0.98;0.60;;;;;;;0.01;0.00;59042.03;10555257;28;20052;-74
2023/05/02 20:45:31;;;;;;;0.85;0.70;;;;;;;0.01;0.00;59042.03;10558693;28;20044;-74
2023/05/02 20:50:32;;;;;;;0.93;0.57;;;;;;;0.01;0.00;59042.03;10557246;28;20047;-74
2023/05/02 20:55:34;;;;;;;2.80;1.25;;;;;;;0.01;0.00;59042.03;10567776;28;20043;-74
2023/05/02 21:00:36;;;;;;;1.75;0.52;;;;;;;0.01;0.00;59042.03;10558669;28;20043;-74
2023/05/02 21:05:38;;;;;;;1.13;0.50;;;;;;;0.01;0.00;59042.03;10550066;28;20043;-74
2023/05/02 21:10:40;;;;;;;0.60;0.55;;;;;;;0.01;0.00;59042.03;10548840;28;20044;-74
2023/05/02 21:15:41;;;;;;;1.20;0.90;;;;;;;0.01;0.00;59042.03;10565108;27;20044;-74
2023/05/02 21:20:43;;;;;;;1.05;0.75;;;;;;;0.01;0.00;59042.03;10541469;28;20044;-74
2023/05/02 21:25:45;;;;;;;0.93;0.45;;;;;;;0.01;0.00;59042.03;10566265;28;20048;-74
2023/05/02 21:30:46;;;;;;;5.85;0.70;;;;;;;0.01;0.00;59042.03;10556819;28;20498;-74
2023/05/02 21:35:54;;;;;;;0.43;0.43;;;;;;;0.01;0.00;59042.03;10566195;28;20414;-74
2023/05/02 21:41:00;;;;;;;1.15;0.55;;;;;;;0.01;0.00;59042.03;10541681;28;20062;-74
2023/05/02 21:46:02;;;;;;;0.85;0.40;;;;;;;0.01;0.00;59042.03;10565562;28;20050;-74
2023/05/02 21:51:08;;;;;;;1.60;0.95;;;;;;;0.01;0.00;59042.03;10547157;28;20094;-74
2023/05/02 21:56:10;;;;;;;0.20;0.20;;;;;;;0.01;0.00;59042.03;10563475;28;20039;-74
2023/05/02 22:01:11;;;;;;;0.38;0.38;;;;;;;0.01;0.00;59042.03;10555011;28;20073;-74
2023/05/02 22:06:13;;;;;;;0.32;0.32;;;;;;;0.01;0.00;59042.03;10543032;28;20043;-73
2023/05/02 22:11:15;;;;;;;0.50;0.50;;;;;;;0.01;0.00;59042.03;10561611;28;20488;-74
2023/05/02 22:16:17;;;;;;;0.35;0.35;;;;;;;0.01;0.00;59042.03;10542707;28;20043;-74
2023/05/02 22:21:19;;;;;;;1.20;0.73;;;;;;;0.01;0.00;59042.03;10553103;28;20040;-74
2023/05/02 22:26:21;;;;;;;0.85;0.57;;;;;;;0.01;0.00;59042.03;10540940;28;20066;-74
2023/05/02 22:31:23;;;;;;;0.13;0.13;;;;;;;0.01;0.00;59042.03;10543773;28;20423;-74
2023/05/02 22:36:26;;;;;;;0.95;0.40;;;;;;;0.01;0.00;59042.03;10552321;28;20044;-74
2023/05/02 22:41:29;;;;;;;0.50;0.40;;;;;;;0.01;0.00;59042.03;10551954;28;20044;-74
2023/05/02 22:46:30;;;;;;;0.93;0.50;;;;;;;0.01;0.00;59042.03;10564904;28;20111;-73
2023/05/02 22:51:32;;;;;;;0.50;0.35;;;;;;;0.01;0.00;59042.03;10556555;28;20051;-74
2023/05/02 22:56:33;;;;;;;0.50;0.40;;;;;;;0.01;0.00;59042.03;10547755;28;20043;-74